Werte bis 5 Uhr SommerzeitDiagramme Vogelsburg: Tagesdaten MonatsdatenCSV-Datei: Vogelsburg20.csv

Wetterdaten 2020 Station: Vogelsburg
Temperaturen in °C relative Nieder- Global- Wind Wind Wind- Sonnen-
Datum Boden Boden Luft Luft Luft Luft Feuchte schlag strahlung max richtung schein
20 cm 5 cm 20 cm 2 m 2 m max 2 m min % mm W/m2*d m/s m/s ° h

07.08.2020 19,4 17,9 10,6 12,5 13,9 11,0 80 0,0 0 0,0 0,0 --- ---
06.08.2020 18,9 20,1 20,6 20,5 31,6 8,6 55 0,0 6423 0,6 5,3 --- 10,4
05.08.2020 18,2 19,1 18,9 18,3 28,9 6,8 62 1,1 6232 0,6 6,1 --- 10,5
04.08.2020 18,3 18,8 17,6 16,9 23,7 10,6 64 0,0 5452 1,9 10,2 --- 10,6
03.08.2020 18,8 19,3 17,8 16,9 22,8 11,0 71 0,0 4494 1,5 5,9 --- 10,5
02.08.2020 19,7 20,3 19,3 19,1 23,2 14,8 83 6,2 1967 1,2 5,3 --- 5,9
01.08.2020 19,8 21,5 23,2 22,7 35,3 11,4 62 0,0 5203 1,2 9,7 --- 10,8
31.07.2020 19,0 20,5 21,4 21,0 31,7 9,0 58 0,0 6665 0,6 4,3 --- 10,9
30.07.2020 18,5 19,4 18,7 18,1 28,1 7,7 61 0,0 6643 0,8 6,5 --- 11,0
29.07.2020 18,8 19,4 18,2 17,3 26,1 8,9 64 0,0 5593 1,1 7,0 --- 11,0
28.07.2020 19,3 20,7 21,9 20,9 28,9 12,9 64 0,0 5324 1,4 10,5 --- 11,3
27.07.2020 18,8 19,4 19,7 19,0 26,9 9,7 70 0,0 3048 0,6 5,6 --- 10,3
26.07.2020 19,5 20,8 20,1 19,8 27,2 13,9 71 11,1 4871 1,2 9,8 --- 8,0
25.07.2020 19,2 20,9 21,8 20,9 28,6 14,1 62 0,0 5112 0,6 7,7 --- 10,4
24.07.2020 18,3 19,3 20,3 19,3 28,8 9,7 60 0,0 4774 1,2 8,3 --- 10,3
23.07.2020 18,0 19,1 18,1 17,4 25,4 7,6 60 0,0 7058 0,6 6,9 --- 11,4
22.07.2020 17,5 18,2 16,9 15,8 25,1 5,0 63 0,0 6380 0,9 5,8 --- 11,6
21.07.2020 17,6 18,2 16,2 15,4 24,0 6,4 66 0,0 6460 1,4 7,5 --- 10,6
20.07.2020 18,2 18,8 17,7 17,1 24,2 11,2 75 0,0 3470 1,4 8,5 --- 9,6
19.07.2020 18,0 19,4 20,8 20,0 29,8 8,8 64 0,0 6019 0,5 4,7 --- 12,2
18.07.2020 17,2 18,2 18,2 17,3 27,4 7,0 69 0,0 5616 0,5 3,4 --- 11,2
17.07.2020 16,8 17,4 16,6 15,8 23,9 8,1 75 0,1 4771 0,8 5,0 --- 9,6
16.07.2020 16,9 16,7 15,2 14,4 19,0 11,0 85 0,0 1532 0,4 3,7 --- 4,0
15.07.2020 18,0 18,1 16,0 15,3 19,5 11,6 86 4,1 2080 1,0 7,6 --- 6,2
14.07.2020 18,1 19,2 19,4 18,3 28,6 7,2 64 0,1 5673 0,9 8,5 --- 11,2
13.07.2020 17,6 18,3 17,4 16,6 26,3 5,3 64 0,0 7004 0,5 4,0 --- 11,7
12.07.2020 17,5 18,0 16,2 15,0 22,7 7,8 71 0,0 6246 0,9 5,6 --- 10,4
11.07.2020 17,8 18,1 15,1 14,0 20,8 6,7 72 0,0 5613 1,0 5,9 --- 11,9
10.07.2020 18,7 19,8 19,5 18,4 26,5 11,5 78 0,0 4004 1,2 11,3 --- 9,2
09.07.2020 17,7 18,7 19,1 18,2 26,3 13,5 83 2,7 3093 0,8 7,4 --- 8,4
08.07.2020 17,5 17,7 15,5 14,2 18,0 11,8 88 4,8 2299 0,6 4,3 --- 7,8
07.07.2020 17,7 18,2 16,9 15,5 22,3 9,6 67 0,0 5299 0,9 6,0 --- 10,2
06.07.2020 18,6 18,7 16,6 15,8 21,6 10,2 66 1,0 3745 1,2 13,8 --- 9,8
05.07.2020 19,0 20,1 22,5 21,9 27,8 17,7 67 0,0 3589 1,7 9,3 --- 8,0
04.07.2020 18,4 19,0 19,7 18,5 27,3 10,0 68 0,0 5365 1,3 8,9 --- 11,8
03.07.2020 18,6 19,4 19,2 17,9 25,2 12,1 73 0,3 6011 0,7 7,3 --- 10,6
02.07.2020 18,7 19,7 19,6 18,4 25,9 14,2 81 11,0 4919 0,9 7,8 --- 9,7
01.07.2020 18,3 19,1 21,4 20,5 26,7 15,9 67 0,7 3681 1,4 7,5 --- 10,4
30.06.2020 18,0 18,2 18,4 17,4 23,6 9,5 60 0,0 5468 1,4 7,8 --- 11,9
29.06.2020 18,5 18,9 17,8 16,8 23,6 10,5 73 1,9 5598 1,0 7,8 --- 10,4
28.06.2020 19,5 20,1 20,2 19,9 26,0 13,6 70 0,5 2710 0,8 8,3 --- 8,6
27.06.2020 19,3 20,5 22,5 21,5 29,7 13,0 72 0,0 6417 0,9 8,1 --- 10,7
26.06.2020 18,7 19,8 21,2 20,3 28,9 10,3 68 0,0 6934 0,8 6,7 --- 11,8
25.06.2020 18,6 19,4 20,4 19,4 26,4 11,7 72 0,0 4944 1,0 6,8 --- 11,7
24.06.2020 18,2 19,3 19,8 18,6 26,5 8,8 68 0,0 7590 0,7 5,6 --- 12,5
23.06.2020 17,8 18,7 18,7 17,7 25,3 7,8 69 0,0 7654 0,8 6,2 --- 12,3
22.06.2020 18,1 18,9 18,8 17,8 23,3 10,8 78 0,0 3932 1,2 6,8 --- 11,1
21.06.2020 17,7 18,7 18,9 17,7 25,9 8,6 73 0,0 5924 0,5 3,3 --- 11,7
20.06.2020 17,9 18,9 18,3 17,3 22,3 10,7 76 0,0 4220 1,3 6,8 --- 11,3
19.06.2020 17,4 18,8 19,2 17,8 23,7 12,0 81 0,1 4498 0,8 5,2 --- 12,0
18.06.2020 17,8 18,0 16,0 15,7 17,7 13,0 93 2,6 992 0,6 5,3 --- 1,6
17.06.2020 17,7 19,0 19,0 18,1 25,1 12,0 87 3,6 4143 0,8 5,8 --- 10,3
16.06.2020 17,2 18,2 18,0 17,1 22,9 12,5 88 6,1 3079 0,4 2,8 --- 9,5
15.06.2020 18,0 18,4 16,4 16,3 17,8 12,3 94 6,9 1048 1,1 5,9 --- 1,5
14.06.2020 18,7 20,0 19,2 18,6 23,2 16,1 92 18,1 2450 0,7 4,4 --- 7,5
13.06.2020 18,2 20,8 22,6 21,6 31,2 12,8 74 12,8 6710 1,0 10,3 --- 11,5
12.06.2020 16,6 19,1 20,8 19,7 27,0 12,0 75 0,1 6774 1,1 7,4 --- 10,4
11.06.2020 15,4 16,7 15,8 14,9 19,1 11,7 89 1,3 2331 0,6 3,1 --- 6,8
10.06.2020 15,0 16,0 15,3 14,4 19,2 11,8 90 1,9 1866 0,9 4,3 --- 6,3
09.06.2020 14,9 15,7 14,3 13,3 19,4 7,0 86 3,1 2752 0,7 5,0 --- 8,5
08.06.2020 15,0 16,6 14,4 13,4 22,9 6,2 75 0,0 5019 0,7 5,6 --- 9,7
07.06.2020 14,1 15,5 14,6 13,3 19,3 6,1 72 0,0 5069 0,7 5,9 --- 11,3
06.06.2020 13,7 14,1 12,1 11,1 16,2 6,6 79 2,4 4468 1,5 8,0 --- 10,0
05.06.2020 14,6 15,3 12,2 11,3 16,4 8,1 82 6,1 3565 1,4 8,1 --- 8,2
04.06.2020 15,3 15,6 13,3 13,1 16,6 9,2 93 7,9 1132 0,3 6,7 --- 2,8
03.06.2020 15,9 17,9 18,4 17,4 28,6 8,1 69 1,2 5166 0,7 9,6 --- 10,5
02.06.2020 14,6 16,2 18,0 17,0 26,6 5,4 61 0,0 7498 0,7 5,0 --- 11,0
01.06.2020 13,6 14,7 16,1 15,4 25,0 3,6 63 0,0 7695 1,0 6,4 --- 11,7
31.05.2020 13,1 13,6 13,4 12,7 20,6 3,5 68 0,0 5713 0,9 6,5 --- 11,0
30.05.2020 13,0 13,1 12,8 12,1 20,4 3,0 64 0,0 4969 1,0 8,2 --- 10,6
29.05.2020 13,3 13,7 13,4 12,6 20,4 2,8 64 0,0 7012 0,9 6,4 --- 11,6
28.05.2020 13,8 14,8 14,9 13,9 18,9 6,2 63 0,5 7694 2,7 8,8 --- 11,8
27.05.2020 12,9 13,8 15,4 14,6 23,8 4,2 70 0,0 6492 0,8 4,6 --- 11,9
26.05.2020 12,5 12,7 12,2 11,4 20,0 3,2 78 0,0 4320 0,6 4,5 --- 10,8
25.05.2020 12,9 13,5 13,3 13,1 17,9 8,0 77 0,2 4631 2,5 10,2 --- 9,7
24.05.2020 12,9 13,0 11,9 11,5 18,9 5,6 81 3,3 2940 0,8 7,1 --- 6,3
23.05.2020 14,0 14,7 14,6 13,9 17,4 9,4 77 1,6 2557 1,1 11,3 --- 9,7
22.05.2020 13,6 14,4 17,7 17,0 25,2 7,1 74 7,7 2703 0,6 5,4 --- 9,7
21.05.2020 13,0 14,3 16,0 15,3 24,6 5,0 66 0,0 6975 0,7 4,5 --- 10,6
20.05.2020 13,0 13,9 14,7 14,3 18,4 8,0 82 0,5 2069 0,9 5,0 --- 6,5
19.05.2020 12,6 13,6 16,1 15,5 22,7 5,5 66 0,0 4773 1,3 7,9 --- 11,5
18.05.2020 11,7 12,7 15,2 14,4 24,1 2,3 64 0,0 6495 0,8 6,6 --- 11,3
17.05.2020 11,2 12,0 12,6 11,9 19,1 5,2 64 0,0 6067 1,1 5,6 --- 11,1
16.05.2020 10,2 10,5 10,7 9,7 19,1 -1,3 65 0,0 6095 0,9 7,9 --- 11,8
15.05.2020 10,0 10,2 8,9 8,1 15,3 0,2 65 0,0 6880 1,8 8,0 --- 11,5
14.05.2020 10,0 10,1 9,1 8,5 13,8 3,9 69 0,0 3109 2,0 6,7 --- 9,4
13.05.2020 9,5 9,7 9,5 8,2 15,2 0,8 67 0,0 4382 1,0 6,3 --- 11,0
12.05.2020 9,0 8,0 6,2 5,0 10,5 -2,9 72 0,0 3626 0,9 5,5 --- 11,6
11.05.2020 11,0 10,0 5,7 5,8 14,7 -0,3 82 8,4 949 3,4 10,6 --- 1,3
10.05.2020 11,9 12,6 14,1 13,7 22,9 5,6 76 0,0 2540 0,7 4,4 --- 7,6
09.05.2020 11,7 12,9 15,6 14,6 24,3 4,5 61 0,0 5889 0,9 6,2 --- 10,7
08.05.2020 10,7 11,7 13,2 12,9 23,0 2,7 60 0,0 6031 0,8 5,6 --- 10,7
07.05.2020 9,9 10,5 11,3 11,0 20,7 0,1 58 0,0 6972 0,8 7,6 --- 10,7
06.05.2020 9,4 9,4 8,8 8,1 16,3 -2,5 66 0,0 6856 1,2 7,7 --- 11,1
05.05.2020 9,7 9,6 7,5 7,1 13,2 0,7 68 0,0 7019 2,2 9,2 --- 10,8
04.05.2020 10,3 10,3 8,6 8,6 11,9 3,5 90 4,0 1100 1,0 6,9 --- 2,7
03.05.2020 10,3 11,0 11,3 10,5 16,2 5,3 76 0,0 3269 0,6 6,1 --- 7,2
02.05.2020 10,1 10,1 8,6 8,3 12,0 4,6 85 7,2 2227 1,1 8,3 --- 5,9
01.05.2020 10,7 10,9 10,1 10,0 15,5 5,9 80 5,2 2861 1,3 6,7 --- 7,5
30.04.2020 11,1 11,6 12,5 12,1 16,5 7,6 75 2,2 2971 2,1 10,5 --- 7,8
29.04.2020 11,0 12,1 13,4 13,2 21,2 7,0 74 0,1 3764 0,8 7,8 --- 9,0
28.04.2020 10,5 10,8 12,2 11,8 18,4 2,6 75 0,8 2134 0,6 5,3 --- 9,4
27.04.2020 10,5 11,3 12,3 12,2 23,5 0,1 59 0,0 5712 0,7 6,6 --- 10,8
26.04.2020 10,1 10,8 9,8 9,6 19,6 -1,4 64 0,0 6364 0,7 5,9 --- 10,6
25.04.2020 10,4 10,8 9,4 9,3 15,9 2,2 62 0,0 4870 2,1 8,0 --- 10,3
24.04.2020 10,4 11,2 11,9 12,2 21,7 2,4 61 0,0 4943 1,9 10,1 --- 10,3
23.04.2020 10,3 11,4 12,1 12,5 20,7 3,0 53 0,0 6241 1,2 7,2 --- 10,0
22.04.2020 9,9 10,8 11,5 12,1 19,0 3,6 46 0,0 6369 1,7 11,8 --- 10,3
21.04.2020 9,7 10,3 11,6 11,5 16,9 4,1 46 0,0 6314 2,4 12,7 --- 10,3
20.04.2020 9,9 10,1 9,8 9,9 15,3 1,4 45 0,0 6292 2,4 14,4 --- 10,2
19.04.2020 11,0 12,1 10,7 10,7 16,0 6,5 63 3,8 5201 1,4 8,3 --- 8,3
18.04.2020 10,3 11,9 13,1 13,0 23,5 3,5 73 2,9 4727 0,8 5,8 --- 9,4
17.04.2020 9,8 11,6 12,9 13,4 22,3 4,8 60 0,0 5546 0,9 5,0 --- 10,1
16.04.2020 8,6 10,0 11,5 12,0 24,3 -0,5 57 0,0 5527 0,6 5,2 --- 9,4
15.04.2020 7,6 8,2 7,5 7,3 18,8 -2,2 62 0,0 5263 0,7 5,7 --- 9,2
14.04.2020 7,7 7,7 5,7 5,2 10,1 0,0 53 0,0 4721 2,9 10,5 --- 10,1
13.04.2020 8,8 8,4 6,8 6,9 10,0 2,7 60 0,0 3218 3,8 12,1 --- 7,5
12.04.2020 9,0 10,2 11,5 11,9 24,0 0,3 58 0,0 4611 0,8 9,3 --- 8,3
11.04.2020 8,8 9,5 8,3 8,8 18,9 -1,8 56 0,0 5501 1,0 5,9 --- 9,6
10.04.2020 9,2 10,2 9,5 9,9 18,7 1,6 65 0,0 5233 1,3 6,8 --- 10,0
09.04.2020 9,2 10,4 10,9 11,3 20,5 1,8 65 0,0 4972 1,5 6,9 --- 9,7
08.04.2020 9,1 10,9 11,9 13,0 23,5 3,4 61 0,0 5176 0,7 7,1 --- 9,5
07.04.2020 8,2 10,0 11,7 12,1 21,1 2,4 67 0,0 5026 1,3 7,5 --- 9,7
06.04.2020 7,3 8,8 10,6 11,3 23,3 -0,9 56 0,0 5330 0,9 6,3 --- 9,8
05.04.2020 6,4 7,6 9,1 9,5 17,9 -1,9 55 0,0 5202 1,6 9,5 --- 9,7
04.04.2020 5,7 7,0 6,2 6,4 13,2 -1,4 67 0,0 5139 0,9 4,8 --- 9,2
03.04.2020 5,1 5,0 5,3 5,6 8,1 2,9 78 0,2 454 0,7 5,6 --- 0,6
02.04.2020 4,7 5,5 4,3 4,1 13,1 -5,4 65 0,0 5240 1,2 8,0 --- 9,5
01.04.2020 4,2 4,4 2,0 1,9 11,6 -7,5 60 0,0 5164 0,9 5,7 --- 9,6
31.03.2020 4,5 4,5 2,0 1,9 7,5 -4,3 66 0,0 3797 1,2 7,2 --- 9,1
30.03.2020 4,1 3,9 1,1 0,8 7,0 -6,3 65 0,0 3658 1,2 9,0 --- 8,6
29.03.2020 5,3 4,8 3,3 3,2 5,6 -1,1 75 0,6 1251 3,9 11,1 --- 3,7
28.03.2020 5,6 6,6 7,3 7,9 15,5 1,0 60 0,0 4586 2,6 10,1 --- 8,9
27.03.2020 4,6 5,6 7,2 7,7 16,7 -0,7 55 0,0 4342 1,3 8,7 --- 8,6
26.03.2020 3,7 3,7 3,5 3,7 10,5 -4,2 53 0,0 4413 2,1 11,2 --- 8,6
25.03.2020 3,6 3,5 1,8 2,2 9,8 -5,7 47 0,0 4815 1,4 8,8 --- 8,8
24.03.2020 3,7 3,3 1,2 1,4 8,2 -6,0 50 0,0 4806 1,6 7,5 --- 8,8
23.03.2020 4,1 3,3 0,7 0,9 6,6 -5,2 47 0,0 4774 1,9 8,5 --- 8,8
22.03.2020 5,2 4,2 1,6 1,5 6,1 -2,4 58 0,0 4505 2,5 11,2 --- 8,8
21.03.2020 6,8 6,3 4,4 4,2 7,7 0,5 67 0,0 2294 2,1 11,6 --- 7,0
20.03.2020 7,9 8,1 7,7 7,7 10,0 3,9 86 0,0 505 0,9 5,9 --- 0,5
19.03.2020 7,8 9,1 9,7 9,8 17,1 3,4 78 0,0 3019 0,6 4,3 --- 7,9
18.03.2020 6,9 8,0 8,2 8,7 18,9 0,2 78 0,0 4054 0,7 7,6 --- 8,3
17.03.2020 6,8 7,8 8,2 8,7 16,3 4,3 79 0,1 2378 0,6 4,5 --- 6,0
16.03.2020 5,8 6,7 7,2 7,7 18,5 -1,4 73 0,0 3581 0,5 4,3 --- 8,1
15.03.2020 5,5 5,7 6,2 6,7 13,2 0,0 66 0,0 3760 1,8 8,8 --- 7,9
14.03.2020 6,0 6,0 4,1 4,3 10,4 -0,4 81 0,1 2573 1,0 5,2 --- 7,0
13.03.2020 6,5 6,5 5,9 6,0 12,2 2,0 72 1,4 2803 1,6 16,7 --- 6,8
12.03.2020 7,8 8,6 8,8 9,8 12,8 3,7 68 2,0 2437 2,4 14,0 --- 5,5
11.03.2020 6,7 8,4 10,0 10,3 14,6 6,9 92 6,3 1139 1,0 11,7 --- 3,3
10.03.2020 5,3 5,4 6,1 6,4 11,0 2,8 91 10,1 722 2,7 11,5 --- 1,7
09.03.2020 5,7 6,7 7,1 7,3 13,2 2,0 79 0,0 2415 1,3 7,1 --- 6,1
08.03.2020 4,3 4,7 6,3 6,4 10,7 -1,0 76 0,0 1696 1,8 10,6 --- 6,2
07.03.2020 4,5 4,3 3,5 3,9 7,1 -0,2 83 0,4 638 1,7 8,9 --- 0,8
06.03.2020 4,7 5,0 4,7 4,8 7,8 2,5 91 4,0 733 1,5 9,5 --- 2,0
05.03.2020 3,9 3,8 3,9 4,0 8,8 -0,6 85 4,0 1459 1,5 7,7 --- 4,4
04.03.2020 4,1 3,4 1,9 2,1 7,8 -2,0 91 0,6 1148 0,7 5,6 --- 4,2
03.03.2020 5,4 5,4 4,3 4,5 7,8 -1,1 83 2,7 1240 1,2 10,0 --- 4,4
02.03.2020 5,2 6,0 6,2 6,2 10,8 1,6 79 2,4 2835 1,4 8,6 --- 7,1
01.03.2020 4,8 5,0 6,1 6,7 10,7 4,6 71 0,5 1733 2,3 11,8 --- 4,4
29.02.2020 4,3 5,1 6,5 6,8 12,6 1,7 82 1,6 1800 2,5 13,9 --- 5,0
28.02.2020 3,7 3,6 3,1 3,1 7,3 0,4 80 2,2 1578 1,7 10,9 --- 5,6
27.02.2020 3,9 3,3 2,1 2,1 4,5 0,8 88 1,2 870 1,5 6,2 --- 3,4
26.02.2020 4,7 3,9 2,2 2,3 3,6 0,7 91 4,6 697 1,5 8,3 --- 1,7
25.02.2020 5,6 6,4 7,5 7,9 11,8 2,7 76 4,8 1647 1,4 8,7 --- 4,9
24.02.2020 5,0 4,7 5,1 5,3 9,7 2,0 80 0,6 715 2,3 11,3 --- 1,9
23.02.2020 5,4 6,3 7,7 8,4 11,3 5,2 88 18,5 325 3,2 20,0 --- ---
22.02.2020 4,4 4,6 6,8 7,1 10,7 3,4 69 0,9 1191 2,5 11,7 --- 4,5
21.02.2020 4,3 4,5 5,1 5,3 8,8 3,0 72 3,1 1186 1,9 15,0 --- 3,9
20.02.2020 3,9 3,8 4,5 5,1 8,2 0,6 84 2,0 717 2,3 10,8 --- 1,8
19.02.2020 4,4 4,1 4,0 4,6 6,5 1,4 78 2,7 633 1,9 13,7 --- 1,8
18.02.2020 4,8 4,7 5,2 5,9 9,2 4,0 77 1,6 1009 1,6 8,7 --- 3,7
17.02.2020 5,7 6,2 6,9 7,6 15,3 4,4 78 1,8 753 1,9 13,8 --- 2,4
16.02.2020 4,8 6,3 11,8 12,9 16,1 9,2 57 0,1 1014 3,9 14,7 --- 3,6
15.02.2020 3,7 4,3 6,1 6,8 11,2 2,4 78 0,0 2139 1,5 7,8 --- 6,1
14.02.2020 3,0 3,6 4,9 5,2 8,1 3,4 86 0,3 765 1,0 5,4 --- 2,3
13.02.2020 2,2 1,4 1,6 2,3 4,5 -0,6 89 2,5 400 1,7 9,7 --- ---
12.02.2020 2,8 2,0 2,2 2,9 7,2 0,9 74 0,3 1219 1,4 11,8 --- 3,7
11.02.2020 3,8 3,3 2,9 3,4 6,6 0,6 76 6,0 1596 1,6 13,7 --- 4,7
10.02.2020 4,7 5,2 5,8 6,6 12,3 2,6 82 16,1 568 2,6 22,3 --- 1,1
09.02.2020 3,3 4,0 7,0 7,7 12,4 0,5 73 0,0 1233 3,3 17,7 --- 5,1
08.02.2020 2,5 2,1 2,0 2,3 8,2 -3,5 84 0,0 1673 0,7 4,8 --- 5,9
07.02.2020 3,2 3,0 2,8 3,0 5,2 -1,1 82 0,0 688 0,8 5,1 --- 2,2
06.02.2020 2,7 2,1 2,0 2,3 4,3 -0,8 85 0,0 292 0,8 3,9 --- ---
05.02.2020 3,8 3,0 1,4 2,0 6,0 -1,9 79 0,0 2231 3,1 11,9 --- 6,9
04.02.2020 5,0 4,7 3,7 3,9 6,4 2,2 87 7,3 729 2,6 12,9 --- 2,4
03.02.2020 5,5 6,0 7,6 8,4 11,1 5,9 83 2,1 557 0,8 7,0 --- 1,6
02.02.2020 5,4 5,7 6,7 7,4 10,8 5,3 85 4,5 291 1,0 8,8 --- ---
01.02.2020 5,6 6,9 9,5 10,4 11,6 6,6 86 7,3 211 2,1 13,6 --- ---
31.01.2020 4,3 5,9 10,0 11,0 13,4 7,1 80 0,6 759 1,6 8,9 --- 2,4
30.01.2020 2,7 2,8 4,8 5,5 8,0 1,1 81 0,3 503 2,0 9,1 --- 0,2
29.01.2020 2,6 2,4 2,5 3,0 5,1 1,1 83 0,3 459 1,2 6,8 --- 0,6
28.01.2020 3,2 3,3 3,6 4,3 6,1 1,7 85 7,3 306 2,0 10,5 --- 0,1
27.01.2020 2,4 3,1 4,6 5,0 7,4 0,5 91 2,3 417 1,9 8,9 --- 1,3
26.01.2020 1,4 1,6 1,9 1,7 3,9 -0,4 95 0,0 773 0,8 4,2 --- 2,9
25.01.2020 0,8 0,2 -0,4 -0,6 0,6 -1,7 93 0,0 291 0,8 3,6 --- ---
24.01.2020 0,9 -0,1 -1,4 -1,4 0,0 -5,2 95 0,0 273 1,1 5,0 --- ---
23.01.2020 1,1 0,5 -0,1 0,1 3,0 -3,8 97 0,0 421 0,3 3,1 --- ---
22.01.2020 1,1 -0,1 -2,1 -2,2 0,8 -6,3 99 0,2 274 0,3 1,9 --- ---
21.01.2020 1,8 0,3 -3,6 -3,1 3,1 -6,0 97 0,0 1539 0,3 1,8 --- 5,8
20.01.2020 2,8 2,2 0,3 0,7 7,5 -3,8 92 0,1 1413 0,3 2,3 --- 4,9
19.01.2020 3,3 2,9 2,0 2,3 4,4 -0,7 93 0,3 512 0,9 5,0 --- 0,8
18.01.2020 3,5 3,0 2,6 3,5 6,8 1,2 87 0,1 732 0,8 5,5 --- 1,9
17.01.2020 3,4 2,9 2,9 3,8 10,5 -1,6 92 0,3 1306 0,9 6,5 --- 5,3
16.01.2020 4,6 4,5 4,6 6,0 10,8 0,6 90 0,0 816 0,6 6,5 --- 2,6
15.01.2020 4,7 5,4 9,5 10,6 13,0 8,9 62 0,0 1393 2,6 10,0 --- 5,2
14.01.2020 4,0 4,4 7,6 8,5 10,3 4,6 69 0,0 612 2,8 12,6 --- 2,0
13.01.2020 3,4 3,5 4,8 5,3 6,9 4,3 88 0,0 361 1,9 6,8 --- 0,2
12.01.2020 2,9 1,9 1,7 2,2 4,6 -0,9 87 0,0 405 1,6 10,5 --- 0,3
11.01.2020 4,4 3,9 3,5 3,9 7,2 0,7 79 0,0 1179 1,8 9,2 --- 4,1
10.01.2020 5,3 6,1 7,3 8,0 9,6 4,8 86 1,1 356 2,5 11,1 --- 0,3
09.01.2020 4,1 5,5 7,9 8,5 10,5 6,1 96 15,2 169 1,7 9,5 --- ---
08.01.2020 2,7 3,2 5,0 5,6 7,0 4,3 92 1,8 83 2,1 8,4 --- ---
07.01.2020 1,9 1,4 2,0 2,5 5,0 -1,6 94 0,1 290 1,0 5,6 --- ---
06.01.2020 2,4 2,2 2,1 2,9 6,6 -1,4 89 0,0 464 0,5 5,0 --- 1,0
05.01.2020 2,0 1,5 0,9 1,4 4,0 -1,1 97 0,2 254 0,4 4,5 --- ---
04.01.2020 2,3 2,4 3,1 3,8 5,4 1,2 89 2,5 221 1,3 10,1 --- ---
03.01.2020 1,0 0,9 4,3 4,9 7,4 2,2 94 1,5 114 2,2 11,6 --- ---
02.01.2020 0,9 -0,2 -2,8 -2,3 2,4 -6,4 98 0,1 687 0,6 7,8 --- 2,7
01.01.2020 1,2 0,2 -2,7 -1,8 3,7 -4,5 97 0,0 1001 0,4 2,2 --- 3,6

Mittelwerte (Temperaturen, Strahlung, rel. Feuchte, Wind), Summe (Regen) für 2020
10,0 10,5 10,4 10,3 74 330 3.377 1,3

Landesbetrieb Landwirtschaft Hessen 2009

      Werte bis 5 Uhr SommerzeitCSV-Datei: Vogelsburg20.csvDiagramm: Vogelsburg